sensor_id;sensor_type;location;lat;lon;timestamp;pressure;altitude;pressure_sealevel;temperature;humidity
39487;BME280;25173;50.430;18.926;2023-08-20T00:01:22;98575.28;;;24.60;68.10
39487;BME280;25173;50.430;18.926;2023-08-20T00:04:26;98585.31;;;24.49;68.03
39487;BME280;25173;50.430;18.926;2023-08-20T00:07:27;98586.56;;;24.36;68.57
39487;BME280;25173;50.430;18.926;2023-08-20T00:10:27;98586.34;;;24.29;68.67
39487;BME280;25173;50.430;18.926;2023-08-20T00:13:28;98585.06;;;24.26;68.92
39487;BME280;25173;50.430;18.926;2023-08-20T00:16:29;98581.38;;;24.22;69.00
39487;BME280;25173;50.430;18.926;2023-08-20T00:19:29;98577.66;;;24.18;69.55
39487;BME280;25173;50.430;18.926;2023-08-20T00:22:30;98582.41;;;24.18;69.43
39487;BME280;25173;50.430;18.926;2023-08-20T00:25:31;98578.00;;;24.17;69.56
39487;BME280;25173;50.430;18.926;2023-08-20T00:28:32;98576.75;;;24.14;70.00
39487;BME280;25173;50.430;18.926;2023-08-20T00:31:37;98571.19;;;24.14;69.27
39487;BME280;25173;50.430;18.926;2023-08-20T00:34:38;98574.66;;;24.11;69.05
39487;BME280;25173;50.430;18.926;2023-08-20T00:37:40;98573.03;;;24.10;69.15
39487;BME280;25173;50.430;18.926;2023-08-20T00:40:41;98576.53;;;24.07;69.20
39487;BME280;25173;50.430;18.926;2023-08-20T00:43:41;98575.59;;;24.03;69.65
39487;BME280;25173;50.430;18.926;2023-08-20T00:46:42;98572.75;;;23.99;70.01
39487;BME280;25173;50.430;18.926;2023-08-20T00:49:43;98568.66;;;23.97;70.02
39487;BME280;25173;50.430;18.926;2023-08-20T00:52:44;98565.53;;;23.98;70.06
39487;BME280;25173;50.430;18.926;2023-08-20T00:55:45;98566.78;;;24.01;69.85
39487;BME280;25173;50.430;18.926;2023-08-20T00:58:46;98565.19;;;24.00;69.84
39487;BME280;25173;50.430;18.926;2023-08-20T01:01:47;98569.94;;;23.99;69.64
39487;BME280;25173;50.430;18.926;2023-08-20T01:04:48;98569.56;;;24.01;69.42
39487;BME280;25173;50.430;18.926;2023-08-20T01:08:17;98557.28;;;24.02;69.70
39487;BME280;25173;50.430;18.926;2023-08-20T01:11:34;98564.25;;;23.96;69.71
39487;BME280;25173;50.430;18.926;2023-08-20T01:14:36;98564.78;;;23.86;69.40
39487;BME280;25173;50.430;18.926;2023-08-20T01:17:37;98564.53;;;23.79;69.70
39487;BME280;25173;50.430;18.926;2023-08-20T01:20:45;98570.00;;;23.75;70.07
39487;BME280;25173;50.430;18.926;2023-08-20T01:24:05;98569.19;;;23.75;70.50
39487;BME280;25173;50.430;18.926;2023-08-20T01:27:41;98566.88;;;23.77;70.42
39487;BME280;25173;50.430;18.926;2023-08-20T01:30:43;98566.88;;;23.77;69.21
39487;BME280;25173;50.430;18.926;2023-08-20T01:33:46;98568.28;;;23.71;69.48
39487;BME280;25173;50.430;18.926;2023-08-20T01:36:47;98560.28;;;23.69;69.71
39487;BME280;25173;50.430;18.926;2023-08-20T01:39:47;98565.50;;;23.71;69.78
39487;BME280;25173;50.430;18.926;2023-08-20T01:42:49;98566.66;;;23.70;70.05
39487;BME280;25173;50.430;18.926;2023-08-20T01:45:50;98561.53;;;23.72;69.60
39487;BME280;25173;50.430;18.926;2023-08-20T01:48:51;98562.72;;;23.71;69.23
39487;BME280;25173;50.430;18.926;2023-08-20T01:51:51;98573.84;;;23.71;69.18
39487;BME280;25173;50.430;18.926;2023-08-20T01:54:52;98568.72;;;23.73;69.31
39487;BME280;25173;50.430;18.926;2023-08-20T01:57:53;98572.66;;;23.72;69.04
39487;BME280;25173;50.430;18.926;2023-08-20T02:00:54;98569.78;;;23.68;69.31
39487;BME280;25173;50.430;18.926;2023-08-20T02:03:54;98568.06;;;23.64;69.90
39487;BME280;25173;50.430;18.926;2023-08-20T02:06:55;98570.38;;;23.62;69.61
39487;BME280;25173;50.430;18.926;2023-08-20T02:09:55;98571.19;;;23.62;69.62
39487;BME280;25173;50.430;18.926;2023-08-20T02:12:56;98570.72;;;23.60;69.22
39487;BME280;25173;50.430;18.926;2023-08-20T02:15:58;98570.25;;;23.58;69.38
39487;BME280;25173;50.430;18.926;2023-08-20T02:19:01;98575.00;;;23.57;69.22
39487;BME280;25173;50.430;18.926;2023-08-20T02:22:04;98576.06;;;23.53;69.44
39487;BME280;25173;50.430;18.926;2023-08-20T02:25:05;98571.19;;;23.50;69.10
39487;BME280;25173;50.430;18.926;2023-08-20T02:28:05;98586.59;;;23.47;69.27
39487;BME280;25173;50.430;18.926;2023-08-20T02:31:06;98588.44;;;23.43;69.21
39487;BME280;25173;50.430;18.926;2023-08-20T02:34:06;98576.88;;;23.41;69.20
39487;BME280;25173;50.430;18.926;2023-08-20T02:37:07;98573.63;;;23.39;69.74
39487;BME280;25173;50.430;18.926;2023-08-20T02:40:08;98574.31;;;23.36;70.28
39487;BME280;25173;50.430;18.926;2023-08-20T02:43:09;98579.84;;;23.36;70.15
39487;BME280;25173;50.430;18.926;2023-08-20T02:46:10;98568.75;;;23.36;70.44
39487;BME280;25173;50.430;18.926;2023-08-20T02:49:10;98570.38;;;23.37;70.47
39487;BME280;25173;50.430;18.926;2023-08-20T02:52:11;98574.44;;;23.40;70.23
39487;BME280;25173;50.430;18.926;2023-08-20T02:55:12;98576.06;;;23.41;70.13
39487;BME280;25173;50.430;18.926;2023-08-20T02:58:12;98574.88;;;23.42;69.89
39487;BME280;25173;50.430;18.926;2023-08-20T03:01:23;98580.44;;;23.42;69.81
39487;BME280;25173;50.430;18.926;2023-08-20T03:04:25;98584.25;;;23.37;69.50
39487;BME280;25173;50.430;18.926;2023-08-20T03:07:26;98589.34;;;23.35;69.99
39487;BME280;25173;50.430;18.926;2023-08-20T03:10:27;98588.09;;;23.33;70.05
39487;BME280;25173;50.430;18.926;2023-08-20T03:13:28;98594.81;;;23.32;69.80
39487;BME280;25173;50.430;18.926;2023-08-20T03:16:28;98594.00;;;23.31;70.31
39487;BME280;25173;50.430;18.926;2023-08-20T03:19:33;98595.97;;;23.31;70.68
39487;BME280;25173;50.430;18.926;2023-08-20T03:22:36;98597.13;;;23.30;70.63
39487;BME280;25173;50.430;18.926;2023-08-20T03:25:38;98598.75;;;23.31;70.51
39487;BME280;25173;50.430;18.926;2023-08-20T03:28:38;98605.81;;;23.28;70.21
39487;BME280;25173;50.430;18.926;2023-08-20T03:31:39;98606.97;;;23.27;69.92
39487;BME280;25173;50.430;18.926;2023-08-20T03:34:40;98605.00;;;23.28;69.95
39487;BME280;25173;50.430;18.926;2023-08-20T03:37:40;98605.22;;;23.22;69.52
39487;BME280;25173;50.430;18.926;2023-08-20T03:40:41;98605.91;;;23.19;69.72
39487;BME280;25173;50.430;18.926;2023-08-20T03:43:44;98604.66;;;23.17;69.67
39487;BME280;25173;50.430;18.926;2023-08-20T03:46:45;98598.97;;;23.13;69.87
39487;BME280;25173;50.430;18.926;2023-08-20T03:49:47;98604.41;;;23.10;70.53
39487;BME280;25173;50.430;18.926;2023-08-20T03:52:50;98609.50;;;23.08;70.72
39487;BME280;25173;50.430;18.926;2023-08-20T03:55:51;98604.63;;;23.05;70.52
39487;BME280;25173;50.430;18.926;2023-08-20T03:58:52;98601.72;;;23.01;70.56
39487;BME280;25173;50.430;18.926;2023-08-20T04:01:54;98616.66;;;22.97;70.86
39487;BME280;25173;50.430;18.926;2023-08-20T04:04:57;98615.84;;;22.96;71.51
39487;BME280;25173;50.430;18.926;2023-08-20T04:07:58;98604.75;;;22.96;71.50
39487;BME280;25173;50.430;18.926;2023-08-20T04:10:58;98612.03;;;23.01;71.46
39487;BME280;25173;50.430;18.926;2023-08-20T04:13:59;98611.81;;;23.06;71.47
39487;BME280;25173;50.430;18.926;2023-08-20T04:17:00;98610.44;;;23.12;71.57
39487;BME280;25173;50.430;18.926;2023-08-20T04:20:00;98611.84;;;23.18;71.41
39487;BME280;25173;50.430;18.926;2023-08-20T04:23:02;98616.81;;;23.25;71.25
39487;BME280;25173;50.430;18.926;2023-08-20T04:26:02;98611.16;;;23.33;70.93
39487;BME280;25173;50.430;18.926;2023-08-20T04:29:03;98614.50;;;23.39;70.99
39487;BME280;25173;50.430;18.926;2023-08-20T04:32:04;98623.41;;;23.44;71.51
39487;BME280;25173;50.430;18.926;2023-08-20T04:35:05;98621.72;;;23.52;71.68
39487;BME280;25173;50.430;18.926;2023-08-20T04:38:07;98627.38;;;23.68;71.87
39487;BME280;25173;50.430;18.926;2023-08-20T04:41:09;98624.69;;;23.83;71.93
39487;BME280;25173;50.430;18.926;2023-08-20T04:44:09;98629.63;;;24.02;72.11
39487;BME280;25173;50.430;18.926;2023-08-20T04:47:11;98629.38;;;24.19;72.38
39487;BME280;25173;50.430;18.926;2023-08-20T04:50:13;98639.66;;;24.43;72.68
39487;BME280;25173;50.430;18.926;2023-08-20T04:53:13;98634.69;;;24.64;72.07
39487;BME280;25173;50.430;18.926;2023-08-20T04:56:14;98629.63;;;24.82;72.03
39487;BME280;25173;50.430;18.926;2023-08-20T04:59:15;98635.22;;;24.98;71.71
39487;BME280;25173;50.430;18.926;2023-08-20T05:02:27;98636.06;;;25.14;71.77
39487;BME280;25173;50.430;18.926;2023-08-20T05:05:33;98642.72;;;25.25;71.42
39487;BME280;25173;50.430;18.926;2023-08-20T05:08:33;98637.34;;;25.32;71.10
39487;BME280;25173;50.430;18.926;2023-08-20T05:11:35;98640.66;;;25.38;70.94
39487;BME280;25173;50.430;18.926;2023-08-20T05:14:35;98639.56;;;25.42;71.09
39487;BME280;25173;50.430;18.926;2023-08-20T05:17:36;98640.03;;;25.44;71.18
39487;BME280;25173;50.430;18.926;2023-08-20T05:20:38;98640.56;;;25.50;71.19
39487;BME280;25173;50.430;18.926;2023-08-20T05:23:40;98636.81;;;25.58;71.64
39487;BME280;25173;50.430;18.926;2023-08-20T05:26:40;98641.38;;;25.66;71.18
39487;BME280;25173;50.430;18.926;2023-08-20T05:29:41;98647.13;;;25.73;71.39
39487;BME280;25173;50.430;18.926;2023-08-20T05:32:42;98647.31;;;25.80;71.20
39487;BME280;25173;50.430;18.926;2023-08-20T05:35:44;98651.06;;;25.88;70.97
39487;BME280;25173;50.430;18.926;2023-08-20T05:38:45;98655.47;;;25.89;71.43
39487;BME280;25173;50.430;18.926;2023-08-20T05:41:45;98652.13;;;25.99;71.47
39487;BME280;25173;50.430;18.926;2023-08-20T05:44:46;98646.78;;;26.10;71.35
39487;BME280;25173;50.430;18.926;2023-08-20T05:47:51;98652.63;;;26.20;71.66
39487;BME280;25173;50.430;18.926;2023-08-20T05:50:51;98650.81;;;26.28;71.54
39487;BME280;25173;50.430;18.926;2023-08-20T05:53:52;98659.72;;;26.34;71.39
39487;BME280;25173;50.430;18.926;2023-08-20T05:56:53;98660.66;;;26.41;71.03
39487;BME280;25173;50.430;18.926;2023-08-20T05:59:54;98657.22;;;26.48;70.96
39487;BME280;25173;50.430;18.926;2023-08-20T06:02:55;98669.34;;;26.55;70.97
39487;BME280;25173;50.430;18.926;2023-08-20T06:05:58;98662.38;;;26.65;70.67
39487;BME280;25173;50.430;18.926;2023-08-20T06:08:59;98666.56;;;26.75;71.11
39487;BME280;25173;50.430;18.926;2023-08-20T06:12:00;98667.13;;;26.84;69.91
39487;BME280;25173;50.430;18.926;2023-08-20T06:15:00;98670.53;;;26.93;70.59
39487;BME280;25173;50.430;18.926;2023-08-20T06:18:01;98669.81;;;26.96;69.45
39487;BME280;25173;50.430;18.926;2023-08-20T06:21:01;98668.63;;;26.97;68.92
39487;BME280;25173;50.430;18.926;2023-08-20T06:24:02;98667.06;;;26.99;68.68
39487;BME280;25173;50.430;18.926;2023-08-20T06:27:03;98665.09;;;27.00;68.53
39487;BME280;25173;50.430;18.926;2023-08-20T06:30:05;98666.03;;;27.08;68.83
39487;BME280;25173;50.430;18.926;2023-08-20T06:33:06;98663.84;;;27.20;68.79
39487;BME280;25173;50.430;18.926;2023-08-20T06:36:07;98669.69;;;27.34;68.73
39487;BME280;25173;50.430;18.926;2023-08-20T06:39:07;98667.53;;;27.47;68.60
39487;BME280;25173;50.430;18.926;2023-08-20T06:42:08;98673.78;;;27.60;68.79
39487;BME280;25173;50.430;18.926;2023-08-20T06:45:10;98672.78;;;27.71;68.41
39487;BME280;25173;50.430;18.926;2023-08-20T06:48:11;98679.34;;;27.83;68.14
39487;BME280;25173;50.430;18.926;2023-08-20T06:51:15;98676.75;;;27.93;67.91
39487;BME280;25173;50.430;18.926;2023-08-20T06:54:16;98674.44;;;28.02;67.66
39487;BME280;25173;50.430;18.926;2023-08-20T06:57:16;98676.97;;;28.11;67.72
39487;BME280;25173;50.430;18.926;2023-08-20T07:00:17;98683.97;;;28.21;67.41
39487;BME280;25173;50.430;18.926;2023-08-20T07:03:19;98678.84;;;28.26;67.82
39487;BME280;25173;50.430;18.926;2023-08-20T07:06:20;98674.13;;;28.34;68.13
39487;BME280;25173;50.430;18.926;2023-08-20T07:09:20;98677.41;;;28.39;68.04
39487;BME280;25173;50.430;18.926;2023-08-20T07:12:21;98681.13;;;28.47;67.48
39487;BME280;25173;50.430;18.926;2023-08-20T07:15:21;98688.81;;;28.53;67.03
39487;BME280;25173;50.430;18.926;2023-08-20T07:18:22;98688.53;;;28.62;66.82
39487;BME280;25173;50.430;18.926;2023-08-20T07:21:23;98685.44;;;28.71;66.51
39487;BME280;25173;50.430;18.926;2023-08-20T07:24:23;98687.97;;;28.79;66.67
39487;BME280;25173;50.430;18.926;2023-08-20T07:27:25;98688.88;;;28.87;66.72
39487;BME280;25173;50.430;18.926;2023-08-20T07:30:28;98687.78;;;28.95;67.02
39487;BME280;25173;50.430;18.926;2023-08-20T07:33:28;98694.72;;;29.08;66.64
39487;BME280;25173;50.430;18.926;2023-08-20T07:36:29;98687.25;;;29.19;66.52
39487;BME280;25173;50.430;18.926;2023-08-20T07:39:29;98693.31;;;29.28;66.32
39487;BME280;25173;50.430;18.926;2023-08-20T07:42:30;98688.63;;;29.36;66.07
39487;BME280;25173;50.430;18.926;2023-08-20T07:45:30;98687.06;;;29.42;66.25
39487;BME280;25173;50.430;18.926;2023-08-20T07:48:31;98698.00;;;29.51;65.91
39487;BME280;25173;50.430;18.926;2023-08-20T07:51:32;98690.44;;;29.58;65.83
39487;BME280;25173;50.430;18.926;2023-08-20T07:54:32;98691.34;;;29.69;65.41
39487;BME280;25173;50.430;18.926;2023-08-20T07:57:33;98691.41;;;29.77;64.85
39487;BME280;25173;50.430;18.926;2023-08-20T08:00:34;98700.31;;;29.86;64.65
39487;BME280;25173;50.430;18.926;2023-08-20T08:03:34;98696.38;;;29.94;64.97
39487;BME280;25173;50.430;18.926;2023-08-20T08:06:35;98703.66;;;30.02;64.60
39487;BME280;25173;50.430;18.926;2023-08-20T08:09:35;98697.31;;;30.12;64.04
39487;BME280;25173;50.430;18.926;2023-08-20T08:12:36;98706.22;;;30.21;64.29
39487;BME280;25173;50.430;18.926;2023-08-20T08:15:36;98703.06;;;30.30;63.59
39487;BME280;25173;50.430;18.926;2023-08-20T08:18:37;98698.28;;;30.37;62.86
39487;BME280;25173;50.430;18.926;2023-08-20T08:21:38;98705.53;;;30.42;62.59
39487;BME280;25173;50.430;18.926;2023-08-20T08:24:39;98701.16;;;30.48;61.34
39487;BME280;25173;50.430;18.926;2023-08-20T08:27:42;98706.44;;;30.57;60.71
39487;BME280;25173;50.430;18.926;2023-08-20T08:30:42;98706.50;;;30.64;60.45
39487;BME280;25173;50.430;18.926;2023-08-20T08:33:43;98706.94;;;30.73;60.47
39487;BME280;25173;50.430;18.926;2023-08-20T08:36:43;98714.22;;;30.81;59.82
39487;BME280;25173;50.430;18.926;2023-08-20T08:39:45;98708.22;;;30.90;57.97
39487;BME280;25173;50.430;18.926;2023-08-20T08:42:49;98704.97;;;30.84;57.10
39487;BME280;25173;50.430;18.926;2023-08-20T08:45:54;98705.78;;;30.81;55.96
39487;BME280;25173;50.430;18.926;2023-08-20T08:48:56;98707.34;;;30.78;56.08
39487;BME280;25173;50.430;18.926;2023-08-20T08:51:57;98703.75;;;30.85;55.54
39487;BME280;25173;50.430;18.926;2023-08-20T08:54:58;98712.22;;;30.92;55.31
39487;BME280;25173;50.430;18.926;2023-08-20T08:57:59;98705.03;;;31.02;55.00
39487;BME280;25173;50.430;18.926;2023-08-20T09:01:00;98703.50;;;31.11;55.37
39487;BME280;25173;50.430;18.926;2023-08-20T09:04:01;98707.97;;;31.30;55.51
39487;BME280;25173;50.430;18.926;2023-08-20T09:07:01;98706.38;;;31.50;54.02
39487;BME280;25173;50.430;18.926;2023-08-20T09:10:02;98706.38;;;31.50;52.58
39487;BME280;25173;50.430;18.926;2023-08-20T09:13:03;98712.44;;;31.56;52.25
39487;BME280;25173;50.430;18.926;2023-08-20T09:16:09;98716.91;;;31.68;52.08
39487;BME280;25173;50.430;18.926;2023-08-20T09:19:09;98710.84;;;31.80;51.79
39487;BME280;25173;50.430;18.926;2023-08-20T09:22:14;98706.00;;;32.01;51.10
39487;BME280;25173;50.430;18.926;2023-08-20T09:25:15;98705.63;;;32.14;51.63
39487;BME280;25173;50.430;18.926;2023-08-20T09:28:17;98716.50;;;32.19;51.69
39487;BME280;25173;50.430;18.926;2023-08-20T09:31:18;98710.84;;;32.05;50.73
39487;BME280;25173;50.430;18.926;2023-08-20T09:34:18;98711.25;;;31.96;51.66
39487;BME280;25173;50.430;18.926;2023-08-20T09:37:21;98709.25;;;31.96;50.00
39487;BME280;25173;50.430;18.926;2023-08-20T09:40:22;98712.88;;;32.04;50.19
39487;BME280;25173;50.430;18.926;2023-08-20T09:43:24;98712.50;;;32.23;50.10
39487;BME280;25173;50.430;18.926;2023-08-20T09:46:31;98710.44;;;32.34;49.77
39487;BME280;25173;50.430;18.926;2023-08-20T09:49:45;98710.03;;;32.36;50.05
39487;BME280;25173;50.430;18.926;2023-08-20T09:53:06;98718.50;;;32.29;48.00
39487;BME280;25173;50.430;18.926;2023-08-20T09:56:17;98712.44;;;32.09;49.49
39487;BME280;25173;50.430;18.926;2023-08-20T09:59:21;98716.91;;;31.99;49.05
39487;BME280;25173;50.430;18.926;2023-08-20T10:02:22;98712.09;;;31.93;48.92
39487;BME280;25173;50.430;18.926;2023-08-20T10:05:23;98709.25;;;31.75;48.46
39487;BME280;25173;50.430;18.926;2023-08-20T10:08:25;98710.47;;;31.71;47.90
39487;BME280;25173;50.430;18.926;2023-08-20T10:11:28;98699.22;;;31.71;48.44
39487;BME280;25173;50.430;18.926;2023-08-20T10:14:28;98706.44;;;31.82;48.58
39487;BME280;25173;50.430;18.926;2023-08-20T10:17:30;98699.59;;;32.05;48.66
39487;BME280;25173;50.430;18.926;2023-08-20T10:20:31;98701.56;;;32.32;48.13
39487;BME280;25173;50.430;18.926;2023-08-20T10:23:32;98700.34;;;32.44;47.26
39487;BME280;25173;50.430;18.926;2023-08-20T10:26:33;98697.47;;;32.62;46.63
39487;BME280;25173;50.430;18.926;2023-08-20T10:29:36;98691.81;;;32.72;46.29
39487;BME280;25173;50.430;18.926;2023-08-20T10:32:58;98693.06;;;32.57;43.49
39487;BME280;25173;50.430;18.926;2023-08-20T10:36:06;98707.22;;;32.36;44.56
39487;BME280;25173;50.430;18.926;2023-08-20T10:39:20;98702.38;;;32.36;44.91
39487;BME280;25173;50.430;18.926;2023-08-20T10:45:22;98695.50;;;32.48;44.70
39487;BME280;25173;50.430;18.926;2023-08-20T10:48:24;98693.84;;;32.61;44.72
39487;BME280;25173;50.430;18.926;2023-08-20T10:51:27;98692.25;;;32.57;44.14
39487;BME280;25173;50.430;18.926;2023-08-20T10:54:28;98695.47;;;32.55;44.49
39487;BME280;25173;50.430;18.926;2023-08-20T10:57:35;98691.44;;;32.56;44.36
39487;BME280;25173;50.430;18.926;2023-08-20T11:00:36;98690.63;;;32.66;44.86
39487;BME280;25173;50.430;18.926;2023-08-20T11:03:38;98688.19;;;32.72;43.98
39487;BME280;25173;50.430;18.926;2023-08-20T11:06:39;98690.59;;;32.81;43.45
39487;BME280;25173;50.430;18.926;2023-08-20T11:09:40;98691.31;;;32.92;44.21
39487;BME280;25173;50.430;18.926;2023-08-20T11:12:43;98693.03;;;32.75;44.18
39487;BME280;25173;50.430;18.926;2023-08-20T11:15:45;98679.34;;;32.59;44.15
39487;BME280;25173;50.430;18.926;2023-08-20T11:18:46;98688.59;;;32.67;44.20
39487;BME280;25173;50.430;18.926;2023-08-20T11:21:48;98679.66;;;32.90;44.83
39487;BME280;25173;50.430;18.926;2023-08-20T11:24:48;98678.69;;;33.21;43.30
39487;BME280;25173;50.430;18.926;2023-08-20T11:27:50;98680.44;;;33.60;42.54
39487;BME280;25173;50.430;18.926;2023-08-20T11:30:51;98681.56;;;33.73;41.53
39487;BME280;25173;50.430;18.926;2023-08-20T11:33:53;98689.38;;;33.51;42.41
39487;BME280;25173;50.430;18.926;2023-08-20T11:36:54;98680.69;;;33.24;41.58
39487;BME280;25173;50.430;18.926;2023-08-20T11:39:54;98668.59;;;33.27;43.40
39487;BME280;25173;50.430;18.926;2023-08-20T11:42:55;98680.53;;;33.49;42.97
39487;BME280;25173;50.430;18.926;2023-08-20T11:45:56;98680.72;;;33.79;43.76
39487;BME280;25173;50.430;18.926;2023-08-20T11:49:07;98671.13;;;34.11;41.02
39487;BME280;25173;50.430;18.926;2023-08-20T11:52:08;98681.84;;;33.89;41.58
39487;BME280;25173;50.430;18.926;2023-08-20T11:55:10;98682.00;;;33.68;42.27
39487;BME280;25173;50.430;18.926;2023-08-20T11:58:14;98670.66;;;33.75;41.92
39487;BME280;25173;50.430;18.926;2023-08-20T12:01:14;98676.31;;;33.78;41.84
39487;BME280;25173;50.430;18.926;2023-08-20T12:04:15;98676.19;;;33.93;41.44
39487;BME280;25173;50.430;18.926;2023-08-20T12:07:15;98674.66;;;34.25;41.27
39487;BME280;25173;50.430;18.926;2023-08-20T12:10:20;98662.66;;;34.52;40.51
39487;BME280;25173;50.430;18.926;2023-08-20T12:13:24;98664.94;;;34.64;40.03
39487;BME280;25173;50.430;18.926;2023-08-20T12:16:24;98673.00;;;34.65;39.66
39487;BME280;25173;50.430;18.926;2023-08-20T12:19:25;98673.34;;;34.34;39.50
39487;BME280;25173;50.430;18.926;2023-08-20T12:22:26;98673.59;;;34.09;40.80
39487;BME280;25173;50.430;18.926;2023-08-20T12:25:29;98673.56;;;34.12;40.04
39487;BME280;25173;50.430;18.926;2023-08-20T12:28:30;98670.53;;;34.34;39.99
39487;BME280;25173;50.430;18.926;2023-08-20T12:31:31;98673.38;;;34.67;39.48
39487;BME280;25173;50.430;18.926;2023-08-20T12:34:32;98676.69;;;34.96;37.99
39487;BME280;25173;50.430;18.926;2023-08-20T12:37:33;98673.78;;;35.30;38.49
39487;BME280;25173;50.430;18.926;2023-08-20T12:40:34;98672.31;;;35.19;38.46
39487;BME280;25173;50.430;18.926;2023-08-20T12:43:36;98671.75;;;35.00;38.62
39487;BME280;25173;50.430;18.926;2023-08-20T12:46:36;98664.34;;;34.80;38.95
39487;BME280;25173;50.430;18.926;2023-08-20T12:49:37;98668.84;;;34.40;38.58
39487;BME280;25173;50.430;18.926;2023-08-20T12:52:37;98668.03;;;33.98;39.78
39487;BME280;25173;50.430;18.926;2023-08-20T12:55:38;98672.19;;;33.86;39.65
39487;BME280;25173;50.430;18.926;2023-08-20T12:58:38;98663.25;;;33.92;39.23
39487;BME280;25173;50.430;18.926;2023-08-20T13:01:39;98664.59;;;34.17;40.80
39487;BME280;25173;50.430;18.926;2023-08-20T13:04:40;98666.78;;;34.44;40.06
39487;BME280;25173;50.430;18.926;2023-08-20T13:07:40;98659.19;;;34.71;39.60
39487;BME280;25173;50.430;18.926;2023-08-20T13:10:41;98665.41;;;34.93;38.64
39487;BME280;25173;50.430;18.926;2023-08-20T13:13:44;98662.25;;;34.87;38.99
39487;BME280;25173;50.430;18.926;2023-08-20T13:16:45;98657.19;;;35.02;38.20
39487;BME280;25173;50.430;18.926;2023-08-20T13:19:46;98654.63;;;35.11;38.17
39487;BME280;25173;50.430;18.926;2023-08-20T13:22:51;98656.69;;;35.37;37.85
39487;BME280;25173;50.430;18.926;2023-08-20T13:25:52;98645.59;;;35.73;38.28
39487;BME280;25173;50.430;18.926;2023-08-20T13:28:52;98642.28;;;35.78;37.48
39487;BME280;25173;50.430;18.926;2023-08-20T13:31:53;98657.38;;;35.95;37.51
39487;BME280;25173;50.430;18.926;2023-08-20T13:34:53;98654.72;;;36.08;37.87
39487;BME280;25173;50.430;18.926;2023-08-20T13:37:54;98648.91;;;36.38;37.81
39487;BME280;25173;50.430;18.926;2023-08-20T13:40:54;98649.81;;;36.75;36.75
39487;BME280;25173;50.430;18.926;2023-08-20T13:43:56;98651.94;;;37.07;36.09
39487;BME280;25173;50.430;18.926;2023-08-20T13:46:56;98644.81;;;37.18;35.51
39487;BME280;25173;50.430;18.926;2023-08-20T13:49:57;98643.94;;;37.38;35.66
39487;BME280;25173;50.430;18.926;2023-08-20T13:52:57;98646.28;;;37.75;35.44
39487;BME280;25173;50.430;18.926;2023-08-20T13:55:58;98644.00;;;37.70;34.54
39487;BME280;25173;50.430;18.926;2023-08-20T13:58:58;98639.78;;;37.75;35.25
39487;BME280;25173;50.430;18.926;2023-08-20T14:01:59;98644.00;;;37.70;34.39
39487;BME280;25173;50.430;18.926;2023-08-20T14:05:00;98636.28;;;37.51;34.87
39487;BME280;25173;50.430;18.926;2023-08-20T14:08:00;98635.72;;;37.59;34.15
39487;BME280;25173;50.430;18.926;2023-08-20T14:11:01;98641.59;;;37.68;34.06
39487;BME280;25173;50.430;18.926;2023-08-20T14:14:02;98642.88;;;37.48;34.67
39487;BME280;25173;50.430;18.926;2023-08-20T14:17:02;98646.13;;;37.14;34.75
39487;BME280;25173;50.430;18.926;2023-08-20T14:20:04;98643.06;;;36.65;34.87
39487;BME280;25173;50.430;18.926;2023-08-20T14:23:05;98641.44;;;36.25;35.25
39487;BME280;25173;50.430;18.926;2023-08-20T14:26:06;98647.19;;;35.98;35.67
39487;BME280;25173;50.430;18.926;2023-08-20T14:29:08;98638.28;;;35.76;35.67
39487;BME280;25173;50.430;18.926;2023-08-20T14:32:08;98632.06;;;35.85;35.99
39487;BME280;25173;50.430;18.926;2023-08-20T14:35:09;98635.13;;;35.70;35.96
39487;BME280;25173;50.430;18.926;2023-08-20T14:38:11;98638.19;;;35.56;36.04
39487;BME280;25173;50.430;18.926;2023-08-20T14:41:11;98627.50;;;35.40;36.34
39487;BME280;25173;50.430;18.926;2023-08-20T14:44:12;98628.34;;;35.37;36.63
39487;BME280;25173;50.430;18.926;2023-08-20T14:47:13;98616.47;;;35.46;36.16
39487;BME280;25173;50.430;18.926;2023-08-20T14:50:14;98630.78;;;35.62;36.42
39487;BME280;25173;50.430;18.926;2023-08-20T14:53:14;98625.31;;;35.98;36.77
39487;BME280;25173;50.430;18.926;2023-08-20T14:56:15;98627.50;;;36.53;35.86
39487;BME280;25173;50.430;18.926;2023-08-20T14:59:15;98627.78;;;36.39;35.36
39487;BME280;25173;50.430;18.926;2023-08-20T15:02:16;98626.22;;;36.38;35.95
39487;BME280;25173;50.430;18.926;2023-08-20T15:05:16;98625.47;;;36.34;35.36
39487;BME280;25173;50.430;18.926;2023-08-20T15:08:17;98625.91;;;36.33;35.64
39487;BME280;25173;50.430;18.926;2023-08-20T15:11:17;98627.72;;;36.23;35.47
39487;BME280;25173;50.430;18.926;2023-08-20T15:14:18;98623.78;;;35.94;35.81
39487;BME280;25173;50.430;18.926;2023-08-20T15:17:18;98631.38;;;35.77;36.20
39487;BME280;25173;50.430;18.926;2023-08-20T15:20:19;98631.38;;;35.77;36.62
39487;BME280;25173;50.430;18.926;2023-08-20T15:23:19;98621.19;;;35.79;36.46
39487;BME280;25173;50.430;18.926;2023-08-20T15:26:20;98618.72;;;35.82;35.99
39487;BME280;25173;50.430;18.926;2023-08-20T15:29:20;98613.47;;;36.03;36.22
39487;BME280;25173;50.430;18.926;2023-08-20T15:32:21;98618.28;;;36.30;35.50
39487;BME280;25173;50.430;18.926;2023-08-20T15:35:22;98622.13;;;36.59;35.06
39487;BME280;25173;50.430;18.926;2023-08-20T15:38:22;98619.53;;;37.04;34.70
39487;BME280;25173;50.430;18.926;2023-08-20T15:41:23;98614.66;;;37.05;34.14
39487;BME280;25173;50.430;18.926;2023-08-20T15:44:24;98613.19;;;37.16;34.11
39487;BME280;25173;50.430;18.926;2023-08-20T15:47:27;98608.78;;;36.76;34.24
39487;BME280;25173;50.430;18.926;2023-08-20T15:50:28;98608.28;;;36.41;34.05
39487;BME280;25173;50.430;18.926;2023-08-20T15:53:29;98609.38;;;36.47;34.54